Terminal Aerodrome Forecast
Issued by NWS Oklahoma City, OK

Home | Current Version | Previous Version | Text Only | Print | Product List | Glossary On
Versions: 1 2 3 4 5 6 7 8 9 10 11 12 13 14 15 16 17 18 19 20 21 22 23 24 25 26
000
FTUS44 KOUN 270520
TAFOUN
TAF
KOUN 270520Z 2706/2806 09006KT P6SM SCT120
     FM271100 13009KT 3SM -DZ BR OVC005
     FM271600 17011KT P6SM BKN015
     FM272000 18014KT P6SM SCT025
      TEMPO 2720/2724 BKN025=

USA.gov is the U.S. government's official web portal to all federal, state and local government web resources and services.